createdAt,value
2023-01-31T00:00:50.168Z,11.30
2023-01-31T00:03:16.590Z,11.30
2023-01-31T00:05:43.038Z,10.57
2023-01-31T00:08:09.394Z,10.50
2023-01-31T00:10:36.214Z,11.63
2023-01-31T00:13:02.643Z,11.15
2023-01-31T00:15:28.997Z,11.00
2023-01-31T00:17:55.535Z,11.40
2023-01-31T00:20:21.853Z,10.98
2023-01-31T00:22:48.325Z,11.20
2023-01-31T00:25:14.727Z,11.40
2023-01-31T00:27:41.059Z,11.43
2023-01-31T00:30:08.211Z,11.50
2023-01-31T00:32:34.976Z,11.38
2023-01-31T00:35:01.355Z,10.80
2023-01-31T00:37:27.665Z,11.05
2023-01-31T00:39:54.123Z,10.35
2023-01-31T00:42:20.529Z,10.73
2023-01-31T00:44:46.881Z,10.38
2023-01-31T00:47:13.221Z,10.65
2023-01-31T00:49:39.554Z,10.27
2023-01-31T00:52:05.974Z,9.98
2023-01-31T00:54:32.394Z,10.00
2023-01-31T00:56:58.711Z,10.00
2023-01-31T00:59:25.043Z,9.77
2023-01-31T01:01:51.528Z,11.05
2023-01-31T01:04:18.025Z,9.95
2023-01-31T01:06:44.378Z,10.20
2023-01-31T01:09:10.732Z,9.77
2023-01-31T01:11:37.223Z,10.13
2023-01-31T01:14:04.162Z,11.07
2023-01-31T01:16:37.994Z,11.55
2023-01-31T01:19:07.035Z,10.02
2023-01-31T01:21:39.047Z,10.85
2023-01-31T01:24:07.227Z,10.70
2023-01-31T01:26:35.101Z,10.35
2023-01-31T01:29:02.454Z,11.68
2023-01-31T01:31:32.565Z,10.15
2023-01-31T01:34:01.942Z,10.60
2023-01-31T01:36:29.231Z,10.80
2023-01-31T01:38:55.887Z,10.75
2023-01-31T01:41:22.241Z,10.80
2023-01-31T01:43:53.519Z,10.60
2023-01-31T01:46:40.812Z,11.23
2023-01-31T01:49:33.218Z,9.98
2023-01-31T01:52:05.315Z,10.52
2023-01-31T01:54:40.372Z,9.80
2023-01-31T01:57:08.308Z,9.52
2023-01-31T01:59:40.423Z,10.25
2023-01-31T02:02:07.244Z,10.15
2023-01-31T02:04:39.474Z,10.55
2023-01-31T02:07:08.927Z,9.73
2023-01-31T02:09:45.331Z,11.60
2023-01-31T02:12:12.673Z,10.98
2023-01-31T02:14:39.422Z,10.70
2023-01-31T02:17:05.795Z,11.30
2023-01-31T02:19:51.655Z,10.98
2023-01-31T02:22:27.726Z,10.27
2023-01-31T02:25:41.222Z,10.38
2023-01-31T02:28:19.750Z,9.15
2023-01-31T02:31:31.294Z,10.77
2023-01-31T02:34:03.891Z,9.85
2023-01-31T02:36:42.689Z,12.07
2023-01-31T02:39:37.636Z,11.50
2023-01-31T02:42:20.632Z,11.68
2023-01-31T02:44:59.172Z,13.30
2023-01-31T02:47:28.465Z,12.48
2023-01-31T02:50:02.877Z,14.23
2023-01-31T02:52:40.035Z,13.60
2023-01-31T02:55:27.743Z,14.48
2023-01-31T02:57:57.343Z,14.00
2023-01-31T03:00:25.725Z,14.82
2023-01-31T03:02:52.232Z,15.93
2023-01-31T03:05:20.488Z,17.75
2023-01-31T03:07:52.672Z,18.88
2023-01-31T03:10:33.237Z,17.90
2023-01-31T03:13:28.367Z,17.13
2023-01-31T03:16:39.218Z,16.73
2023-01-31T03:19:14.155Z,18.33
2023-01-31T03:21:53.261Z,19.13
2023-01-31T03:24:22.012Z,18.50
2023-01-31T03:26:49.240Z,19.70
2023-01-31T03:29:17.597Z,19.38
2023-01-31T03:31:54.063Z,20.45
2023-01-31T03:34:20.613Z,20.35
2023-01-31T03:36:57.255Z,20.30
2023-01-31T03:39:36.167Z,20.38
2023-01-31T03:42:09.638Z,21.40
2023-01-31T03:45:04.791Z,20.40
2023-01-31T03:47:33.092Z,21.05
2023-01-31T03:50:05.783Z,20.30
2023-01-31T03:52:38.317Z,20.63
2023-01-31T03:55:12.500Z,21.80
2023-01-31T03:57:42.384Z,21.77
2023-01-31T04:00:14.187Z,21.45
2023-01-31T04:02:41.454Z,21.00
2023-01-31T04:05:18.717Z,21.55
2023-01-31T04:07:45.529Z,20.50
2023-01-31T04:10:15.691Z,20.65
2023-01-31T04:12:42.109Z,21.48
2023-01-31T04:15:09.430Z,21.42
2023-01-31T04:17:35.988Z,22.70
2023-01-31T04:20:02.497Z,22.52
2023-01-31T04:22:28.923Z,21.80
2023-01-31T04:24:55.238Z,23.50
2023-01-31T04:27:21.587Z,21.67
2023-01-31T04:29:47.949Z,21.95
2023-01-31T04:32:14.486Z,24.45
2023-01-31T04:34:40.868Z,23.23
2023-01-31T04:37:07.225Z,21.63
2023-01-31T04:39:33.624Z,24.13
2023-01-31T04:42:00.073Z,23.83
2023-01-31T04:44:26.510Z,22.88
2023-01-31T04:46:52.940Z,23.38
2023-01-31T04:49:19.268Z,22.45
2023-01-31T04:51:45.719Z,22.27
2023-01-31T04:54:12.446Z,22.92
2023-01-31T04:56:38.823Z,25.10
2023-01-31T04:59:05.166Z,24.65
2023-01-31T05:01:31.885Z,22.27
2023-01-31T05:03:58.288Z,22.15
2023-01-31T05:06:24.692Z,24.27
2023-01-31T05:08:52.917Z,24.30
2023-01-31T05:11:19.233Z,23.10
2023-01-31T05:13:45.656Z,23.38
2023-01-31T05:16:12.396Z,24.05
2023-01-31T05:18:39.413Z,24.15
2023-01-31T05:21:07.383Z,23.33
2023-01-31T05:23:34.321Z,21.77
2023-01-31T05:26:00.697Z,21.65
2023-01-31T05:28:27.132Z,23.52
2023-01-31T05:30:54.103Z,20.77
2023-01-31T05:33:29.368Z,21.38
2023-01-31T05:35:56.540Z,22.45
2023-01-31T05:38:22.997Z,21.63
2023-01-31T05:40:52.948Z,20.17
2023-01-31T05:43:19.338Z,22.60
2023-01-31T05:45:48.229Z,20.80
2023-01-31T05:48:14.665Z,21.27
2023-01-31T05:50:41.018Z,20.80
2023-01-31T05:53:09.134Z,22.65
2023-01-31T05:55:35.807Z,21.05
2023-01-31T05:58:02.464Z,21.33
2023-01-31T06:00:29.065Z,21.67
2023-01-31T06:02:59.913Z,20.27
2023-01-31T06:05:27.030Z,20.48
2023-01-31T06:07:53.433Z,19.55
2023-01-31T06:10:21.095Z,22.35
2023-01-31T06:12:47.827Z,20.60
2023-01-31T06:15:14.183Z,19.63
2023-01-31T06:17:40.556Z,20.13
2023-01-31T06:20:07.410Z,20.92
2023-01-31T06:22:34.226Z,20.65
2023-01-31T06:25:00.650Z,18.83
2023-01-31T06:27:27.075Z,19.02
2023-01-31T06:29:53.393Z,18.58
2023-01-31T06:32:19.840Z,18.38
2023-01-31T06:34:46.479Z,18.58
2023-01-31T06:37:12.975Z,19.00
2023-01-31T06:39:39.373Z,16.70
2023-01-31T06:42:06.197Z,18.05
2023-01-31T06:44:33.420Z,16.60
2023-01-31T06:47:01.301Z,16.63
2023-01-31T06:49:27.702Z,17.70
2023-01-31T06:51:54.412Z,16.92
2023-01-31T06:54:20.820Z,16.92
2023-01-31T06:56:47.401Z,16.83
2023-01-31T06:59:13.693Z,17.77
2023-01-31T07:01:40.068Z,17.65
2023-01-31T07:04:06.396Z,17.10
2023-01-31T07:06:32.771Z,16.08
2023-01-31T07:08:59.102Z,15.75
2023-01-31T07:11:25.421Z,16.58
2023-01-31T07:13:53.167Z,16.40
2023-01-31T07:16:19.727Z,15.77
2023-01-31T07:18:46.308Z,14.25
2023-01-31T07:21:12.633Z,14.27
2023-01-31T07:23:39.463Z,15.02
2023-01-31T07:26:06.331Z,13.60
2023-01-31T07:28:32.717Z,15.15
2023-01-31T07:31:12.588Z,14.93
2023-01-31T07:33:39.916Z,12.52
2023-01-31T07:36:07.859Z,13.98
2023-01-31T07:38:35.506Z,13.18
2023-01-31T07:41:03.282Z,12.90
2023-01-31T07:43:31.128Z,12.85
2023-01-31T07:45:57.995Z,11.80
2023-01-31T07:48:24.519Z,13.18
2023-01-31T07:51:00.428Z,11.95
2023-01-31T07:53:32.327Z,11.77
2023-01-31T07:56:25.177Z,10.85
2023-01-31T07:58:51.528Z,9.90
2023-01-31T08:01:42.112Z,10.50
2023-01-31T08:04:21.210Z,10.70
2023-01-31T08:06:50.551Z,9.32
2023-01-31T08:09:16.890Z,9.60
2023-01-31T08:11:43.254Z,9.48
2023-01-31T08:14:09.908Z,8.77
2023-01-31T08:16:36.863Z,10.43
2023-01-31T08:19:04.014Z,9.85
2023-01-31T08:21:30.562Z,9.43
2023-01-31T08:23:57.147Z,8.70
2023-01-31T08:26:23.644Z,9.23
2023-01-31T08:28:51.624Z,10.77
2023-01-31T08:31:21.645Z,12.18
2023-01-31T08:33:51.155Z,9.75
2023-01-31T08:36:20.316Z,10.55
2023-01-31T08:38:47.614Z,11.18
2023-01-31T08:41:14.350Z,10.55
2023-01-31T08:43:54.839Z,11.40
2023-01-31T08:46:27.023Z,10.63
2023-01-31T08:48:54.410Z,12.10
2023-01-31T08:51:21.556Z,13.68
2023-01-31T08:53:48.099Z,18.10
2023-01-31T08:56:15.112Z,17.00
2023-01-31T08:58:43.584Z,19.40
2023-01-31T09:01:12.599Z,19.90
2023-01-31T09:03:39.609Z,22.40
2023-01-31T09:06:10.728Z,20.52
2023-01-31T09:08:37.232Z,21.83
2023-01-31T09:11:04.633Z,21.10
2023-01-31T09:13:32.351Z,17.02
2023-01-31T09:16:10.796Z,20.63
2023-01-31T09:18:39.049Z,21.55
2023-01-31T09:21:18.901Z,22.02
2023-01-31T09:23:47.010Z,18.48
2023-01-31T09:26:14.790Z,22.15
2023-01-31T09:28:45.454Z,21.02
2023-01-31T09:31:15.117Z,22.65
2023-01-31T09:33:41.948Z,23.25
2023-01-31T09:36:10.562Z,20.92
2023-01-31T09:38:37.572Z,20.48
2023-01-31T09:41:21.668Z,20.38
2023-01-31T09:43:54.239Z,19.67
2023-01-31T09:46:26.009Z,19.20
2023-01-31T09:48:55.313Z,19.85
2023-01-31T09:51:22.879Z,21.08
2023-01-31T09:53:49.352Z,19.65
2023-01-31T09:56:24.610Z,19.30
2023-01-31T09:59:11.320Z,18.95
2023-01-31T10:02:11.671Z,17.23
2023-01-31T10:04:48.008Z,15.82
2023-01-31T10:07:28.402Z,17.45
2023-01-31T10:10:11.121Z,18.48
2023-01-31T10:12:43.409Z,18.52
2023-01-31T10:15:32.868Z,19.17
2023-01-31T10:18:09.723Z,19.10
2023-01-31T10:20:42.715Z,22.30
2023-01-31T10:23:26.412Z,23.48
2023-01-31T10:25:59.184Z,28.42
2023-01-31T10:28:30.260Z,26.23
2023-01-31T10:31:03.339Z,30.38
2023-01-31T10:33:51.750Z,29.20
2023-01-31T10:36:36.505Z,33.15
2023-01-31T10:39:17.395Z,25.92
2023-01-31T10:42:02.050Z,20.42
2023-01-31T10:44:43.478Z,22.00
2023-01-31T10:47:13.982Z,21.98
2023-01-31T10:49:44.322Z,19.65
2023-01-31T10:52:19.530Z,20.00
2023-01-31T10:55:04.118Z,17.85
2023-01-31T10:57:31.774Z,16.27
2023-01-31T10:59:58.287Z,17.75
2023-01-31T11:02:28.541Z,17.35
2023-01-31T11:04:57.863Z,19.10
2023-01-31T11:07:28.053Z,17.88
2023-01-31T11:09:55.531Z,18.48
2023-01-31T11:12:38.856Z,18.67
2023-01-31T11:15:17.303Z,19.35
2023-01-31T11:17:46.366Z,18.33
2023-01-31T11:20:23.977Z,21.38
2023-01-31T11:22:52.037Z,17.27
2023-01-31T11:25:22.051Z,17.60
2023-01-31T11:27:49.825Z,18.48
2023-01-31T11:30:32.677Z,19.13
2023-01-31T11:32:59.222Z,18.27
2023-01-31T11:35:32.003Z,17.52
2023-01-31T11:38:01.515Z,18.83
2023-01-31T11:40:32.148Z,18.10
2023-01-31T11:43:02.181Z,18.02
2023-01-31T11:45:31.831Z,17.88
2023-01-31T11:48:08.101Z,20.85
2023-01-31T11:50:38.442Z,20.35
2023-01-31T11:53:17.709Z,22.83
2023-01-31T11:55:44.872Z,21.90
2023-01-31T11:58:31.295Z,20.92
2023-01-31T12:01:06.406Z,18.60
2023-01-31T12:03:33.909Z,18.95
2023-01-31T12:06:10.508Z,19.13
2023-01-31T12:08:39.136Z,29.58
2023-01-31T12:11:06.625Z,20.38
2023-01-31T12:13:46.330Z,19.77
2023-01-31T12:16:12.831Z,21.55
2023-01-31T12:18:39.166Z,18.50
2023-01-31T12:21:27.709Z,19.23
2023-01-31T12:24:12.555Z,19.27
2023-01-31T12:26:54.928Z,18.73
2023-01-31T12:29:55.526Z,21.33
2023-01-31T12:32:39.559Z,17.85
2023-01-31T12:35:29.151Z,19.77
2023-01-31T12:38:07.767Z,21.38
2023-01-31T12:40:52.125Z,21.77
2023-01-31T12:43:49.578Z,18.95
2023-01-31T12:46:37.665Z,17.90
2023-01-31T12:49:16.261Z,18.48
2023-01-31T12:51:59.275Z,20.25
2023-01-31T12:54:52.922Z,18.00
2023-01-31T12:57:35.034Z,19.25
2023-01-31T13:00:24.677Z,18.42
2023-01-31T13:03:00.132Z,17.42
2023-01-31T13:05:32.649Z,20.40
2023-01-31T13:08:17.504Z,18.45
2023-01-31T13:11:07.487Z,17.42
2023-01-31T13:13:56.180Z,20.17
2023-01-31T13:16:29.151Z,19.15
2023-01-31T13:19:01.515Z,19.75
2023-01-31T13:21:33.417Z,20.90
2023-01-31T13:24:09.667Z,24.17
2023-01-31T13:26:43.571Z,31.80
2023-01-31T13:29:20.596Z,41.72
2023-01-31T13:32:12.845Z,32.40
2023-01-31T13:34:55.784Z,30.85
2023-01-31T13:37:22.466Z,44.20
2023-01-31T13:40:00.783Z,48.63
2023-01-31T13:42:28.311Z,51.33
2023-01-31T13:44:55.916Z,52.20
2023-01-31T13:47:28.011Z,55.13
2023-01-31T13:50:02.446Z,50.00
2023-01-31T13:52:34.791Z,51.88
2023-01-31T13:55:06.830Z,50.35
2023-01-31T13:57:46.545Z,54.42
2023-01-31T14:00:45.154Z,53.35
2023-01-31T14:03:14.507Z,49.65
2023-01-31T14:05:50.522Z,53.22
2023-01-31T14:08:39.155Z,51.95
2023-01-31T14:11:14.287Z,50.75
2023-01-31T14:13:43.918Z,50.28
2023-01-31T14:16:31.950Z,51.45
2023-01-31T14:18:58.405Z,53.08
2023-01-31T14:21:30.958Z,61.25
2023-01-31T14:23:59.478Z,51.30
2023-01-31T14:26:44.229Z,62.67
2023-01-31T14:29:16.978Z,55.63
2023-01-31T14:31:45.227Z,59.05
2023-01-31T14:34:26.413Z,55.95
2023-01-31T14:37:09.042Z,58.15
2023-01-31T14:39:58.979Z,50.13
2023-01-31T14:42:51.592Z,54.03
2023-01-31T14:45:29.904Z,53.65
2023-01-31T14:48:23.745Z,54.03
2023-01-31T14:53:26.326Z,49.70
2023-01-31T14:56:06.188Z,51.70
2023-01-31T14:58:35.823Z,53.03
2023-01-31T15:01:05.406Z,77.40
2023-01-31T15:03:36.180Z,50.05
2023-01-31T15:06:15.793Z,56.78
2023-01-31T15:08:49.152Z,51.70
2023-01-31T15:11:44.468Z,57.83
2023-01-31T15:14:35.163Z,53.97
2023-01-31T15:17:40.425Z,54.67
2023-01-31T15:20:24.143Z,56.22
2023-01-31T15:22:53.647Z,54.55
2023-01-31T15:25:35.418Z,58.83
2023-01-31T15:28:03.727Z,54.42
2023-01-31T15:30:33.908Z,57.85
2023-01-31T15:33:00.301Z,60.88
2023-01-31T15:35:42.628Z,61.83
2023-01-31T15:38:35.467Z,55.53
2023-01-31T15:41:16.226Z,57.22
2023-01-31T15:43:42.558Z,55.92
2023-01-31T15:46:32.414Z,53.17
2023-01-31T15:49:00.362Z,51.00
2023-01-31T15:51:27.944Z,57.30
2023-01-31T15:54:09.356Z,51.75
2023-01-31T15:56:40.366Z,55.00
2023-01-31T15:59:13.767Z,55.60
2023-01-31T16:01:47.615Z,58.15
2023-01-31T16:04:14.240Z,54.95
2023-01-31T16:06:41.044Z,53.28
2023-01-31T16:09:22.366Z,56.35
2023-01-31T16:11:49.120Z,55.88
2023-01-31T16:14:16.309Z,53.17
2023-01-31T16:16:45.518Z,56.00
2023-01-31T16:19:25.679Z,58.92
2023-01-31T16:21:52.995Z,53.53
2023-01-31T16:24:22.656Z,53.17
2023-01-31T16:26:59.868Z,65.72
2023-01-31T16:29:50.812Z,56.60
2023-01-31T16:32:25.243Z,53.70
2023-01-31T16:34:58.322Z,52.25
2023-01-31T16:37:35.452Z,54.92
2023-01-31T16:40:24.943Z,56.67
2023-01-31T16:43:18.701Z,54.35
2023-01-31T16:45:57.236Z,54.50
2023-01-31T16:48:32.844Z,54.22
2023-01-31T16:51:20.375Z,53.22
2023-01-31T16:54:06.859Z,54.47
2023-01-31T16:56:33.303Z,51.40
2023-01-31T16:58:59.887Z,50.65
2023-01-31T17:01:33.411Z,49.85
2023-01-31T17:04:07.328Z,53.00
2023-01-31T17:06:34.869Z,49.50
2023-01-31T17:09:04.344Z,50.03
2023-01-31T17:11:42.209Z,50.35
2023-01-31T17:14:09.472Z,50.08
2023-01-31T17:16:35.793Z,46.92
2023-01-31T17:19:02.243Z,51.25
2023-01-31T17:21:29.149Z,48.05
2023-01-31T17:23:55.571Z,48.85
2023-01-31T17:26:23.246Z,47.85
2023-01-31T17:29:00.875Z,50.15
2023-01-31T17:31:29.378Z,48.45
2023-01-31T17:33:55.777Z,46.95
2023-01-31T17:36:22.186Z,47.50
2023-01-31T17:38:48.669Z,51.03
2023-01-31T17:41:17.361Z,50.65
2023-01-31T17:43:44.459Z,49.28
2023-01-31T17:46:13.571Z,48.35
2023-01-31T17:48:40.546Z,47.92
2023-01-31T17:51:07.145Z,48.97
2023-01-31T17:53:40.461Z,48.72
2023-01-31T17:56:14.355Z,47.33
2023-01-31T17:58:40.734Z,49.33
2023-01-31T18:01:11.911Z,47.22
2023-01-31T18:03:38.236Z,50.22
2023-01-31T18:06:08.324Z,51.58
2023-01-31T18:08:35.061Z,49.15
2023-01-31T18:11:10.576Z,50.50
2023-01-31T18:13:38.377Z,48.22
2023-01-31T18:16:10.696Z,48.90
2023-01-31T18:18:40.315Z,48.20
2023-01-31T18:21:14.508Z,48.45
2023-01-31T18:26:08.818Z,35.08
2023-01-31T18:28:35.527Z,43.80
2023-01-31T18:31:10.373Z,46.85
2023-01-31T18:33:37.415Z,48.42
2023-01-31T18:36:04.334Z,47.85
2023-01-31T18:38:30.653Z,44.13
2023-01-31T18:40:58.434Z,47.28
2023-01-31T18:43:25.250Z,44.75
2023-01-31T18:45:51.684Z,41.97
2023-01-31T18:48:18.025Z,41.10
2023-01-31T18:50:44.354Z,36.80
2023-01-31T18:53:10.666Z,36.53
2023-01-31T18:55:37.060Z,36.45
2023-01-31T18:58:03.649Z,35.60
2023-01-31T19:00:30.010Z,35.83
2023-01-31T19:02:56.726Z,38.50
2023-01-31T19:05:23.652Z,35.55
2023-01-31T19:07:50.205Z,38.33
2023-01-31T19:10:16.962Z,45.83
2023-01-31T19:12:43.320Z,43.25
2023-01-31T19:15:12.138Z,44.83
2023-01-31T19:17:38.558Z,45.78
2023-01-31T19:20:06.026Z,49.17
2023-01-31T19:22:32.405Z,50.78
2023-01-31T19:24:58.775Z,52.17
2023-01-31T19:27:25.858Z,50.17
2023-01-31T19:29:52.286Z,49.10
2023-01-31T19:32:18.752Z,55.15
2023-01-31T19:34:45.145Z,53.67
2023-01-31T19:37:11.469Z,54.72
2023-01-31T19:39:37.862Z,51.65
2023-01-31T19:42:04.818Z,51.47
2023-01-31T19:44:31.780Z,54.30
2023-01-31T19:46:58.225Z,52.85
2023-01-31T19:49:24.763Z,50.10
2023-01-31T19:51:51.140Z,50.85
2023-01-31T19:54:19.229Z,49.05
2023-01-31T19:56:45.684Z,49.38
2023-01-31T19:59:12.581Z,47.10
2023-01-31T20:01:39.755Z,47.63
2023-01-31T20:04:06.133Z,44.80
2023-01-31T20:06:33.779Z,42.47
2023-01-31T20:09:01.115Z,44.45
2023-01-31T20:11:34.721Z,45.80
2023-01-31T20:14:01.258Z,44.95
2023-01-31T20:16:28.036Z,45.30
2023-01-31T20:18:56.069Z,44.10
2023-01-31T20:21:22.592Z,45.90
2023-01-31T20:23:49.428Z,49.35
2023-01-31T20:26:16.792Z,45.10
2023-01-31T20:28:44.419Z,47.28
2023-01-31T20:31:12.611Z,49.92
2023-01-31T20:33:39.053Z,44.97
2023-01-31T20:36:12.005Z,48.83
2023-01-31T20:38:39.665Z,50.28
2023-01-31T20:41:08.414Z,51.88
2023-01-31T20:43:35.734Z,53.72
2023-01-31T20:46:07.083Z,51.67
2023-01-31T20:48:33.514Z,52.95
2023-01-31T20:51:00.196Z,46.28
2023-01-31T20:53:28.596Z,49.92
2023-01-31T20:56:15.281Z,51.95
2023-01-31T20:58:43.144Z,51.85
2023-01-31T21:01:11.023Z,47.90
2023-01-31T21:03:37.978Z,50.00
2023-01-31T21:06:04.817Z,53.92
2023-01-31T21:08:31.999Z,51.85
2023-01-31T21:10:59.579Z,52.65
2023-01-31T21:13:31.419Z,53.53
2023-01-31T21:16:00.011Z,52.83
2023-01-31T21:18:28.987Z,52.53
2023-01-31T21:20:55.830Z,47.03
2023-01-31T21:23:22.382Z,51.17
2023-01-31T21:25:48.971Z,49.00
2023-01-31T21:28:15.595Z,52.90
2023-01-31T21:30:42.290Z,52.38
2023-01-31T21:33:08.810Z,48.28
2023-01-31T21:35:35.210Z,49.80
2023-01-31T21:38:01.704Z,49.03
2023-01-31T21:40:28.057Z,52.38
2023-01-31T21:42:54.870Z,47.15
2023-01-31T21:45:39.365Z,49.33
2023-01-31T21:48:25.787Z,49.35
2023-01-31T21:50:52.203Z,47.67
2023-01-31T21:53:18.890Z,51.35
2023-01-31T21:55:45.441Z,49.92
2023-01-31T21:58:11.845Z,49.00
2023-01-31T22:00:38.461Z,48.42
2023-01-31T22:03:04.804Z,47.38
2023-01-31T22:05:31.919Z,45.83
2023-01-31T22:07:58.254Z,48.30
2023-01-31T22:10:24.587Z,48.33
2023-01-31T22:12:51.333Z,48.13
2023-01-31T22:15:17.642Z,45.47
2023-01-31T22:17:44.001Z,48.40
2023-01-31T22:20:11.974Z,47.60
2023-01-31T22:22:38.330Z,48.60
2023-01-31T22:25:05.107Z,48.67
2023-01-31T22:27:31.420Z,50.08
2023-01-31T22:30:06.603Z,51.42
2023-01-31T22:32:40.630Z,45.45
2023-01-31T22:35:07.215Z,43.20
2023-01-31T22:37:33.543Z,50.97
2023-01-31T22:39:59.887Z,48.53
2023-01-31T22:42:26.206Z,45.38
2023-01-31T22:44:52.517Z,47.90
2023-01-31T22:47:18.838Z,47.80
2023-01-31T22:49:45.149Z,47.35
2023-01-31T22:52:11.478Z,44.42
2023-01-31T22:54:37.785Z,46.45
2023-01-31T22:57:04.125Z,46.35
2023-01-31T22:59:30.436Z,42.97
2023-01-31T23:01:56.757Z,46.17
2023-01-31T23:04:23.345Z,45.75
2023-01-31T23:06:49.668Z,47.10
2023-01-31T23:09:17.033Z,49.80
2023-01-31T23:11:43.367Z,45.28
2023-01-31T23:14:09.722Z,46.95
2023-01-31T23:16:54.852Z,43.33
2023-01-31T23:19:21.217Z,45.15
2023-01-31T23:21:48.791Z,45.83
2023-01-31T23:24:15.164Z,44.75
2023-01-31T23:26:42.013Z,42.65
2023-01-31T23:29:08.463Z,46.10
2023-01-31T23:31:34.943Z,41.55
2023-01-31T23:34:01.390Z,44.25
2023-01-31T23:36:27.774Z,41.15
2023-01-31T23:38:54.109Z,41.72
2023-01-31T23:41:20.479Z,41.78
2023-01-31T23:43:46.823Z,43.67
2023-01-31T23:46:13.177Z,46.67
2023-01-31T23:48:41.444Z,44.38
2023-01-31T23:51:07.754Z,44.47
2023-01-31T23:53:34.124Z,36.58
2023-01-31T23:56:00.459Z,40.25
2023-01-31T23:58:26.780Z,38.70
